sensor_id;sensor_type;location;lat;lon;timestamp;P1;durP1;ratioP1;P2;durP2;ratioP2
2434;SDS011;1228;51.022;6.764;2024-02-23T00:00:53;4.20;;;3.90;;
2434;SDS011;1228;51.022;6.764;2024-02-23T00:03:19;4.47;;;4.20;;
2434;SDS011;1228;51.022;6.764;2024-02-23T00:05:44;4.10;;;3.90;;
2434;SDS011;1228;51.022;6.764;2024-02-23T00:08:10;3.67;;;3.47;;
2434;SDS011;1228;51.022;6.764;2024-02-23T00:10:35;3.67;;;3.43;;
2434;SDS011;1228;51.022;6.764;2024-02-23T00:13:01;3.73;;;3.53;;
2434;SDS011;1228;51.022;6.764;2024-02-23T00:15:27;3.53;;;3.30;;
2434;SDS011;1228;51.022;6.764;2024-02-23T00:17:52;3.73;;;3.40;;
2434;SDS011;1228;51.022;6.764;2024-02-23T00:20:18;3.80;;;3.60;;
2434;SDS011;1228;51.022;6.764;2024-02-23T00:22:43;3.70;;;3.40;;
2434;SDS011;1228;51.022;6.764;2024-02-23T00:25:09;3.70;;;3.50;;
2434;SDS011;1228;51.022;6.764;2024-02-23T00:27:34;4.37;;;3.93;;
2434;SDS011;1228;51.022;6.764;2024-02-23T00:30:00;3.87;;;3.57;;
2434;SDS011;1228;51.022;6.764;2024-02-23T00:32:26;4.53;;;4.33;;
2434;SDS011;1228;51.022;6.764;2024-02-23T00:34:52;4.33;;;3.70;;
2434;SDS011;1228;51.022;6.764;2024-02-23T00:37:17;4.37;;;3.97;;
2434;SDS011;1228;51.022;6.764;2024-02-23T00:39:43;4.07;;;3.77;;
2434;SDS011;1228;51.022;6.764;2024-02-23T00:42:08;4.10;;;3.90;;
2434;SDS011;1228;51.022;6.764;2024-02-23T00:44:34;4.23;;;4.03;;
2434;SDS011;1228;51.022;6.764;2024-02-23T00:47:00;4.10;;;3.80;;
2434;SDS011;1228;51.022;6.764;2024-02-23T00:49:27;4.53;;;3.67;;
2434;SDS011;1228;51.022;6.764;2024-02-23T00:51:53;4.10;;;3.80;;
2434;SDS011;1228;51.022;6.764;2024-02-23T00:54:20;4.00;;;3.70;;
2434;SDS011;1228;51.022;6.764;2024-02-23T00:56:46;4.40;;;4.00;;
2434;SDS011;1228;51.022;6.764;2024-02-23T00:59:11;4.20;;;3.80;;
2434;SDS011;1228;51.022;6.764;2024-02-23T01:01:37;4.20;;;3.90;;
2434;SDS011;1228;51.022;6.764;2024-02-23T01:04:02;3.80;;;3.60;;
2434;SDS011;1228;51.022;6.764;2024-02-23T01:06:28;4.03;;;3.73;;
2434;SDS011;1228;51.022;6.764;2024-02-23T01:08:54;4.07;;;3.80;;
2434;SDS011;1228;51.022;6.764;2024-02-23T01:11:19;4.23;;;3.80;;
2434;SDS011;1228;51.022;6.764;2024-02-23T01:13:45;3.80;;;3.60;;
2434;SDS011;1228;51.022;6.764;2024-02-23T01:16:10;6.67;;;3.80;;
2434;SDS011;1228;51.022;6.764;2024-02-23T01:18:36;5.37;;;3.67;;
2434;SDS011;1228;51.022;6.764;2024-02-23T01:21:02;5.83;;;3.70;;
2434;SDS011;1228;51.022;6.764;2024-02-23T01:23:27;4.13;;;3.77;;
2434;SDS011;1228;51.022;6.764;2024-02-23T01:25:53;4.20;;;3.80;;
2434;SDS011;1228;51.022;6.764;2024-02-23T01:28:19;3.70;;;3.50;;
2434;SDS011;1228;51.022;6.764;2024-02-23T01:30:44;4.80;;;3.47;;
2434;SDS011;1228;51.022;6.764;2024-02-23T01:33:10;3.73;;;3.40;;
2434;SDS011;1228;51.022;6.764;2024-02-23T01:35:35;4.03;;;3.47;;
2434;SDS011;1228;51.022;6.764;2024-02-23T01:38:01;4.10;;;3.60;;
2434;SDS011;1228;51.022;6.764;2024-02-23T01:40:27;3.70;;;3.50;;
2434;SDS011;1228;51.022;6.764;2024-02-23T01:43:00;3.93;;;3.47;;
2434;SDS011;1228;51.022;6.764;2024-02-23T01:45:29;3.83;;;3.63;;
2434;SDS011;1228;51.022;6.764;2024-02-23T01:47:56;4.30;;;4.00;;
2434;SDS011;1228;51.022;6.764;2024-02-23T01:50:22;3.70;;;3.50;;
2434;SDS011;1228;51.022;6.764;2024-02-23T01:52:49;4.10;;;3.80;;
2434;SDS011;1228;51.022;6.764;2024-02-23T01:55:17;4.20;;;3.90;;
2434;SDS011;1228;51.022;6.764;2024-02-23T01:57:45;4.23;;;4.03;;
2434;SDS011;1228;51.022;6.764;2024-02-23T02:00:12;3.83;;;3.63;;
2434;SDS011;1228;51.022;6.764;2024-02-23T02:02:42;3.80;;;3.60;;
2434;SDS011;1228;51.022;6.764;2024-02-23T02:05:09;6.33;;;3.73;;
2434;SDS011;1228;51.022;6.764;2024-02-23T02:07:35;4.17;;;3.90;;
2434;SDS011;1228;51.022;6.764;2024-02-23T02:10:00;4.20;;;3.90;;
2434;SDS011;1228;51.022;6.764;2024-02-23T02:12:28;4.50;;;3.40;;
2434;SDS011;1228;51.022;6.764;2024-02-23T02:14:54;5.23;;;4.73;;
2434;SDS011;1228;51.022;6.764;2024-02-23T02:17:20;4.33;;;4.03;;
2434;SDS011;1228;51.022;6.764;2024-02-23T02:19:47;6.33;;;4.20;;
2434;SDS011;1228;51.022;6.764;2024-02-23T02:22:13;4.40;;;3.80;;
2434;SDS011;1228;51.022;6.764;2024-02-23T02:24:39;4.07;;;3.80;;
2434;SDS011;1228;51.022;6.764;2024-02-23T02:27:07;5.60;;;5.03;;
2434;SDS011;1228;51.022;6.764;2024-02-23T02:29:33;6.07;;;4.30;;
2434;SDS011;1228;51.022;6.764;2024-02-23T02:31:59;4.10;;;3.90;;
2434;SDS011;1228;51.022;6.764;2024-02-23T02:34:25;4.90;;;4.60;;
2434;SDS011;1228;51.022;6.764;2024-02-23T02:36:51;6.07;;;4.57;;
2434;SDS011;1228;51.022;6.764;2024-02-23T02:39:16;5.17;;;4.00;;
2434;SDS011;1228;51.022;6.764;2024-02-23T02:41:42;4.40;;;4.10;;
2434;SDS011;1228;51.022;6.764;2024-02-23T02:44:07;5.47;;;3.77;;
2434;SDS011;1228;51.022;6.764;2024-02-23T02:46:34;4.20;;;3.90;;
2434;SDS011;1228;51.022;6.764;2024-02-23T02:49:00;4.67;;;4.20;;
2434;SDS011;1228;51.022;6.764;2024-02-23T02:51:26;4.83;;;4.43;;
2434;SDS011;1228;51.022;6.764;2024-02-23T02:53:51;4.03;;;3.70;;
2434;SDS011;1228;51.022;6.764;2024-02-23T02:56:17;4.43;;;4.13;;
2434;SDS011;1228;51.022;6.764;2024-02-23T02:58:43;4.23;;;3.93;;
2434;SDS011;1228;51.022;6.764;2024-02-23T03:01:08;4.10;;;3.90;;
2434;SDS011;1228;51.022;6.764;2024-02-23T03:03:34;8.20;;;3.80;;
2434;SDS011;1228;51.022;6.764;2024-02-23T03:06:00;4.53;;;4.27;;
2434;SDS011;1228;51.022;6.764;2024-02-23T03:08:25;4.93;;;4.20;;
2434;SDS011;1228;51.022;6.764;2024-02-23T03:10:51;7.37;;;4.70;;
2434;SDS011;1228;51.022;6.764;2024-02-23T03:13:17;6.43;;;4.53;;
2434;SDS011;1228;51.022;6.764;2024-02-23T03:15:42;8.57;;;5.70;;
2434;SDS011;1228;51.022;6.764;2024-02-23T03:18:08;5.37;;;4.97;;
2434;SDS011;1228;51.022;6.764;2024-02-23T03:20:37;5.00;;;4.60;;
2434;SDS011;1228;51.022;6.764;2024-02-23T03:23:03;8.47;;;5.50;;
2434;SDS011;1228;51.022;6.764;2024-02-23T03:25:29;11.73;;;6.47;;
2434;SDS011;1228;51.022;6.764;2024-02-23T03:27:54;6.00;;;4.20;;
2434;SDS011;1228;51.022;6.764;2024-02-23T03:30:20;6.63;;;5.60;;
2434;SDS011;1228;51.022;6.764;2024-02-23T03:32:46;5.53;;;4.40;;
2434;SDS011;1228;51.022;6.764;2024-02-23T03:35:12;7.43;;;5.63;;
2434;SDS011;1228;51.022;6.764;2024-02-23T03:37:38;4.73;;;4.27;;
2434;SDS011;1228;51.022;6.764;2024-02-23T03:40:04;4.07;;;3.77;;
2434;SDS011;1228;51.022;6.764;2024-02-23T03:42:31;6.63;;;4.47;;
2434;SDS011;1228;51.022;6.764;2024-02-23T03:44:56;4.40;;;4.10;;
2434;SDS011;1228;51.022;6.764;2024-02-23T03:47:22;4.33;;;3.70;;
2434;SDS011;1228;51.022;6.764;2024-02-23T03:49:47;10.00;;;4.40;;
2434;SDS011;1228;51.022;6.764;2024-02-23T03:52:13;6.23;;;3.90;;
2434;SDS011;1228;51.022;6.764;2024-02-23T03:54:39;5.33;;;4.40;;
2434;SDS011;1228;51.022;6.764;2024-02-23T03:57:04;5.47;;;4.53;;
2434;SDS011;1228;51.022;6.764;2024-02-23T03:59:30;6.87;;;4.23;;
2434;SDS011;1228;51.022;6.764;2024-02-23T04:01:56;4.37;;;3.77;;
2434;SDS011;1228;51.022;6.764;2024-02-23T04:04:21;5.67;;;4.60;;
2434;SDS011;1228;51.022;6.764;2024-02-23T04:06:47;5.17;;;4.67;;
2434;SDS011;1228;51.022;6.764;2024-02-23T04:09:13;4.43;;;4.13;;
2434;SDS011;1228;51.022;6.764;2024-02-23T04:11:38;5.40;;;3.80;;
2434;SDS011;1228;51.022;6.764;2024-02-23T04:14:04;5.20;;;3.70;;
2434;SDS011;1228;51.022;6.764;2024-02-23T04:16:32;4.47;;;3.80;;
2434;SDS011;1228;51.022;6.764;2024-02-23T04:18:59;4.00;;;3.70;;
2434;SDS011;1228;51.022;6.764;2024-02-23T04:21:25;6.83;;;4.03;;
2434;SDS011;1228;51.022;6.764;2024-02-23T04:23:51;4.47;;;4.17;;
2434;SDS011;1228;51.022;6.764;2024-02-23T04:26:17;5.07;;;4.30;;
2434;SDS011;1228;51.022;6.764;2024-02-23T04:28:42;6.57;;;4.00;;
2434;SDS011;1228;51.022;6.764;2024-02-23T04:31:08;4.70;;;4.20;;
2434;SDS011;1228;51.022;6.764;2024-02-23T04:33:35;6.23;;;4.50;;
2434;SDS011;1228;51.022;6.764;2024-02-23T04:36:01;6.93;;;4.10;;
2434;SDS011;1228;51.022;6.764;2024-02-23T04:38:28;4.77;;;4.30;;
2434;SDS011;1228;51.022;6.764;2024-02-23T04:40:54;4.93;;;3.87;;
2434;SDS011;1228;51.022;6.764;2024-02-23T04:43:20;6.37;;;3.83;;
2434;SDS011;1228;51.022;6.764;2024-02-23T04:45:45;4.70;;;4.30;;
2434;SDS011;1228;51.022;6.764;2024-02-23T04:48:11;4.23;;;3.70;;
2434;SDS011;1228;51.022;6.764;2024-02-23T04:50:36;4.37;;;4.07;;
2434;SDS011;1228;51.022;6.764;2024-02-23T04:53:02;6.03;;;4.33;;
2434;SDS011;1228;51.022;6.764;2024-02-23T04:55:28;4.10;;;3.80;;
2434;SDS011;1228;51.022;6.764;2024-02-23T04:57:53;6.60;;;4.37;;
2434;SDS011;1228;51.022;6.764;2024-02-23T05:00:19;7.23;;;4.33;;
2434;SDS011;1228;51.022;6.764;2024-02-23T05:02:45;7.60;;;4.10;;
2434;SDS011;1228;51.022;6.764;2024-02-23T05:05:11;6.93;;;4.90;;
2434;SDS011;1228;51.022;6.764;2024-02-23T05:07:37;6.47;;;4.37;;
2434;SDS011;1228;51.022;6.764;2024-02-23T05:10:03;4.60;;;4.20;;
2434;SDS011;1228;51.022;6.764;2024-02-23T05:12:30;5.60;;;4.13;;
2434;SDS011;1228;51.022;6.764;2024-02-23T05:14:55;5.13;;;3.93;;
2434;SDS011;1228;51.022;6.764;2024-02-23T05:17:21;5.73;;;3.93;;
2434;SDS011;1228;51.022;6.764;2024-02-23T05:19:46;5.93;;;3.80;;
2434;SDS011;1228;51.022;6.764;2024-02-23T05:22:12;4.20;;;3.80;;
2434;SDS011;1228;51.022;6.764;2024-02-23T05:24:38;5.20;;;3.90;;
2434;SDS011;1228;51.022;6.764;2024-02-23T05:27:03;6.33;;;3.80;;
2434;SDS011;1228;51.022;6.764;2024-02-23T05:29:29;7.20;;;3.90;;
2434;SDS011;1228;51.022;6.764;2024-02-23T05:31:54;4.17;;;3.83;;
2434;SDS011;1228;51.022;6.764;2024-02-23T05:34:20;6.47;;;4.20;;
2434;SDS011;1228;51.022;6.764;2024-02-23T05:36:46;7.77;;;4.27;;
2434;SDS011;1228;51.022;6.764;2024-02-23T05:39:13;7.17;;;5.13;;
2434;SDS011;1228;51.022;6.764;2024-02-23T05:41:40;10.13;;;5.87;;
2434;SDS011;1228;51.022;6.764;2024-02-23T05:44:06;7.97;;;4.53;;
2434;SDS011;1228;51.022;6.764;2024-02-23T05:46:33;5.13;;;4.50;;
2434;SDS011;1228;51.022;6.764;2024-02-23T05:48:59;6.50;;;4.07;;
2434;SDS011;1228;51.022;6.764;2024-02-23T05:51:25;5.17;;;4.67;;
2434;SDS011;1228;51.022;6.764;2024-02-23T05:53:54;5.80;;;3.97;;
2434;SDS011;1228;51.022;6.764;2024-02-23T05:56:19;5.23;;;3.77;;
2434;SDS011;1228;51.022;6.764;2024-02-23T05:58:45;8.27;;;4.20;;
2434;SDS011;1228;51.022;6.764;2024-02-23T06:01:11;4.57;;;4.17;;
2434;SDS011;1228;51.022;6.764;2024-02-23T06:03:36;4.43;;;4.10;;
2434;SDS011;1228;51.022;6.764;2024-02-23T06:06:02;4.10;;;3.70;;
2434;SDS011;1228;51.022;6.764;2024-02-23T06:08:33;5.03;;;4.63;;
2434;SDS011;1228;51.022;6.764;2024-02-23T06:10:58;5.27;;;4.50;;
2434;SDS011;1228;51.022;6.764;2024-02-23T06:13:25;4.07;;;3.83;;
2434;SDS011;1228;51.022;6.764;2024-02-23T06:15:50;6.10;;;4.03;;
2434;SDS011;1228;51.022;6.764;2024-02-23T06:18:16;4.10;;;3.80;;
2434;SDS011;1228;51.022;6.764;2024-02-23T06:20:41;8.27;;;4.33;;
2434;SDS011;1228;51.022;6.764;2024-02-23T06:23:07;4.60;;;4.23;;
2434;SDS011;1228;51.022;6.764;2024-02-23T06:25:33;4.70;;;4.10;;
2434;SDS011;1228;51.022;6.764;2024-02-23T06:27:58;5.40;;;4.50;;
2434;SDS011;1228;51.022;6.764;2024-02-23T06:30:24;4.53;;;3.67;;
2434;SDS011;1228;51.022;6.764;2024-02-23T06:32:49;5.90;;;4.20;;
2434;SDS011;1228;51.022;6.764;2024-02-23T06:35:15;5.03;;;3.93;;
2434;SDS011;1228;51.022;6.764;2024-02-23T06:37:40;4.50;;;4.07;;
2434;SDS011;1228;51.022;6.764;2024-02-23T06:40:06;4.50;;;4.20;;
2434;SDS011;1228;51.022;6.764;2024-02-23T06:42:33;6.40;;;4.10;;
2434;SDS011;1228;51.022;6.764;2024-02-23T06:44:59;7.50;;;4.37;;
2434;SDS011;1228;51.022;6.764;2024-02-23T06:47:24;4.97;;;4.30;;
2434;SDS011;1228;51.022;6.764;2024-02-23T06:49:50;5.97;;;4.50;;
2434;SDS011;1228;51.022;6.764;2024-02-23T06:52:15;5.10;;;4.70;;
2434;SDS011;1228;51.022;6.764;2024-02-23T06:54:42;7.50;;;4.30;;
2434;SDS011;1228;51.022;6.764;2024-02-23T06:57:07;8.53;;;4.40;;
2434;SDS011;1228;51.022;6.764;2024-02-23T06:59:33;5.07;;;4.10;;
2434;SDS011;1228;51.022;6.764;2024-02-23T07:01:58;4.30;;;3.90;;
2434;SDS011;1228;51.022;6.764;2024-02-23T07:04:24;6.73;;;4.30;;
2434;SDS011;1228;51.022;6.764;2024-02-23T07:06:53;4.63;;;4.20;;
2434;SDS011;1228;51.022;6.764;2024-02-23T07:09:19;6.67;;;4.27;;
2434;SDS011;1228;51.022;6.764;2024-02-23T07:11:44;4.80;;;4.37;;
2434;SDS011;1228;51.022;6.764;2024-02-23T07:14:10;4.77;;;4.03;;
2434;SDS011;1228;51.022;6.764;2024-02-23T07:16:39;4.50;;;4.07;;
2434;SDS011;1228;51.022;6.764;2024-02-23T07:19:05;4.47;;;4.07;;
2434;SDS011;1228;51.022;6.764;2024-02-23T07:21:30;4.93;;;4.30;;
2434;SDS011;1228;51.022;6.764;2024-02-23T07:23:56;6.20;;;4.80;;
2434;SDS011;1228;51.022;6.764;2024-02-23T07:26:21;5.90;;;3.90;;
2434;SDS011;1228;51.022;6.764;2024-02-23T07:28:47;4.30;;;3.90;;
2434;SDS011;1228;51.022;6.764;2024-02-23T07:31:14;4.20;;;3.90;;
2434;SDS011;1228;51.022;6.764;2024-02-23T07:33:40;6.50;;;4.53;;
2434;SDS011;1228;51.022;6.764;2024-02-23T07:36:07;5.33;;;4.33;;
2434;SDS011;1228;51.022;6.764;2024-02-23T07:38:38;5.50;;;4.10;;
2434;SDS011;1228;51.022;6.764;2024-02-23T07:41:03;5.50;;;4.73;;
2434;SDS011;1228;51.022;6.764;2024-02-23T07:43:29;4.63;;;4.00;;
2434;SDS011;1228;51.022;6.764;2024-02-23T07:45:55;3.90;;;3.50;;
2434;SDS011;1228;51.022;6.764;2024-02-23T07:48:23;4.17;;;3.90;;
2434;SDS011;1228;51.022;6.764;2024-02-23T07:50:48;3.20;;;3.00;;
2434;SDS011;1228;51.022;6.764;2024-02-23T07:53:14;3.53;;;3.30;;
2434;SDS011;1228;51.022;6.764;2024-02-23T07:55:40;3.30;;;3.00;;
2434;SDS011;1228;51.022;6.764;2024-02-23T07:58:05;10.50;;;3.20;;
2434;SDS011;1228;51.022;6.764;2024-02-23T08:00:31;6.70;;;3.43;;
2434;SDS011;1228;51.022;6.764;2024-02-23T08:02:59;3.17;;;2.87;;
2434;SDS011;1228;51.022;6.764;2024-02-23T08:05:25;3.00;;;2.80;;
2434;SDS011;1228;51.022;6.764;2024-02-23T08:07:50;7.17;;;2.90;;
2434;SDS011;1228;51.022;6.764;2024-02-23T08:10:16;6.90;;;3.17;;
2434;SDS011;1228;51.022;6.764;2024-02-23T08:12:44;3.37;;;2.80;;
2434;SDS011;1228;51.022;6.764;2024-02-23T08:15:10;3.43;;;2.60;;
2434;SDS011;1228;51.022;6.764;2024-02-23T08:17:36;3.60;;;3.20;;
2434;SDS011;1228;51.022;6.764;2024-02-23T08:20:02;4.40;;;3.10;;
2434;SDS011;1228;51.022;6.764;2024-02-23T08:22:29;8.67;;;3.70;;
2434;SDS011;1228;51.022;6.764;2024-02-23T08:24:54;5.47;;;3.40;;
2434;SDS011;1228;51.022;6.764;2024-02-23T08:27:20;4.07;;;3.77;;
2434;SDS011;1228;51.022;6.764;2024-02-23T08:29:46;4.00;;;3.33;;
2434;SDS011;1228;51.022;6.764;2024-02-23T08:32:11;5.33;;;3.03;;
2434;SDS011;1228;51.022;6.764;2024-02-23T08:34:38;5.57;;;2.90;;
2434;SDS011;1228;51.022;6.764;2024-02-23T08:37:04;4.63;;;2.67;;
2434;SDS011;1228;51.022;6.764;2024-02-23T08:39:29;4.10;;;2.80;;
2434;SDS011;1228;51.022;6.764;2024-02-23T08:41:55;3.40;;;2.70;;
2434;SDS011;1228;51.022;6.764;2024-02-23T08:44:20;3.07;;;2.70;;
2434;SDS011;1228;51.022;6.764;2024-02-23T08:46:49;3.60;;;2.73;;
2434;SDS011;1228;51.022;6.764;2024-02-23T08:49:14;3.97;;;2.60;;
2434;SDS011;1228;51.022;6.764;2024-02-23T08:51:40;2.93;;;2.70;;
2434;SDS011;1228;51.022;6.764;2024-02-23T08:54:05;4.93;;;2.90;;
2434;SDS011;1228;51.022;6.764;2024-02-23T08:56:42;6.33;;;3.03;;
2434;SDS011;1228;51.022;6.764;2024-02-23T08:59:10;3.93;;;3.03;;
2434;SDS011;1228;51.022;6.764;2024-02-23T09:01:36;4.87;;;3.00;;
2434;SDS011;1228;51.022;6.764;2024-02-23T09:04:02;3.80;;;2.87;;
2434;SDS011;1228;51.022;6.764;2024-02-23T09:06:27;3.30;;;3.00;;
2434;SDS011;1228;51.022;6.764;2024-02-23T09:08:53;5.00;;;3.00;;
2434;SDS011;1228;51.022;6.764;2024-02-23T09:11:18;3.67;;;3.17;;
2434;SDS011;1228;51.022;6.764;2024-02-23T09:13:44;3.13;;;2.83;;
2434;SDS011;1228;51.022;6.764;2024-02-23T09:16:10;4.40;;;2.70;;
2434;SDS011;1228;51.022;6.764;2024-02-23T09:18:35;3.47;;;2.90;;
2434;SDS011;1228;51.022;6.764;2024-02-23T09:21:01;4.17;;;2.40;;
2434;SDS011;1228;51.022;6.764;2024-02-23T09:23:26;2.67;;;2.40;;
2434;SDS011;1228;51.022;6.764;2024-02-23T09:25:52;4.07;;;3.00;;
2434;SDS011;1228;51.022;6.764;2024-02-23T09:28:18;5.23;;;4.93;;
2434;SDS011;1228;51.022;6.764;2024-02-23T09:30:43;2.73;;;2.40;;
2434;SDS011;1228;51.022;6.764;2024-02-23T09:33:09;3.63;;;2.60;;
2434;SDS011;1228;51.022;6.764;2024-02-23T09:35:35;2.80;;;2.30;;
2434;SDS011;1228;51.022;6.764;2024-02-23T09:38:00;2.77;;;2.50;;
2434;SDS011;1228;51.022;6.764;2024-02-23T09:40:27;3.13;;;2.83;;
2434;SDS011;1228;51.022;6.764;2024-02-23T09:42:55;3.10;;;2.90;;
2434;SDS011;1228;51.022;6.764;2024-02-23T09:45:22;3.27;;;2.97;;
2434;SDS011;1228;51.022;6.764;2024-02-23T09:47:52;3.07;;;2.87;;
2434;SDS011;1228;51.022;6.764;2024-02-23T09:50:20;3.23;;;2.60;;
2434;SDS011;1228;51.022;6.764;2024-02-23T09:52:50;5.47;;;2.80;;
2434;SDS011;1228;51.022;6.764;2024-02-23T09:55:20;3.20;;;2.90;;
2434;SDS011;1228;51.022;6.764;2024-02-23T09:57:47;4.07;;;3.73;;
2434;SDS011;1228;51.022;6.764;2024-02-23T10:00:18;3.30;;;3.00;;
2434;SDS011;1228;51.022;6.764;2024-02-23T10:02:44;2.73;;;2.53;;
2434;SDS011;1228;51.022;6.764;2024-02-23T10:05:10;5.10;;;3.03;;
2434;SDS011;1228;51.022;6.764;2024-02-23T10:07:37;3.87;;;2.73;;
2434;SDS011;1228;51.022;6.764;2024-02-23T10:10:07;2.97;;;2.80;;
2434;SDS011;1228;51.022;6.764;2024-02-23T10:12:35;2.90;;;2.70;;
2434;SDS011;1228;51.022;6.764;2024-02-23T10:15:02;3.30;;;3.00;;
2434;SDS011;1228;51.022;6.764;2024-02-23T10:17:31;3.40;;;3.07;;
2434;SDS011;1228;51.022;6.764;2024-02-23T10:19:57;2.97;;;2.77;;
2434;SDS011;1228;51.022;6.764;2024-02-23T10:22:24;3.50;;;2.83;;
2434;SDS011;1228;51.022;6.764;2024-02-23T10:24:50;4.50;;;2.57;;
2434;SDS011;1228;51.022;6.764;2024-02-23T10:27:16;4.13;;;2.70;;
2434;SDS011;1228;51.022;6.764;2024-02-23T10:29:42;3.93;;;2.60;;
2434;SDS011;1228;51.022;6.764;2024-02-23T10:32:08;2.77;;;2.57;;
2434;SDS011;1228;51.022;6.764;2024-02-23T10:34:39;3.97;;;3.07;;
2434;SDS011;1228;51.022;6.764;2024-02-23T10:37:08;2.93;;;2.70;;
2434;SDS011;1228;51.022;6.764;2024-02-23T10:39:35;2.87;;;2.67;;
2434;SDS011;1228;51.022;6.764;2024-02-23T10:42:03;3.70;;;2.67;;
2434;SDS011;1228;51.022;6.764;2024-02-23T10:44:32;4.20;;;2.70;;
2434;SDS011;1228;51.022;6.764;2024-02-23T10:46:58;3.50;;;3.20;;
2434;SDS011;1228;51.022;6.764;2024-02-23T10:49:28;3.00;;;2.80;;
2434;SDS011;1228;51.022;6.764;2024-02-23T10:51:54;3.00;;;2.77;;
2434;SDS011;1228;51.022;6.764;2024-02-23T10:54:21;4.97;;;2.80;;
2434;SDS011;1228;51.022;6.764;2024-02-23T10:56:48;5.30;;;3.10;;
2434;SDS011;1228;51.022;6.764;2024-02-23T10:59:15;3.57;;;2.83;;
2434;SDS011;1228;51.022;6.764;2024-02-23T11:01:44;3.43;;;2.70;;
2434;SDS011;1228;51.022;6.764;2024-02-23T11:04:15;3.23;;;2.97;;
2434;SDS011;1228;51.022;6.764;2024-02-23T11:06:48;3.23;;;3.03;;
2434;SDS011;1228;51.022;6.764;2024-02-23T11:09:15;4.03;;;3.20;;
2434;SDS011;1228;51.022;6.764;2024-02-23T11:11:50;3.97;;;3.50;;
2434;SDS011;1228;51.022;6.764;2024-02-23T11:14:28;3.17;;;2.93;;
2434;SDS011;1228;51.022;6.764;2024-02-23T11:17:04;3.20;;;3.00;;
2434;SDS011;1228;51.022;6.764;2024-02-23T11:19:32;3.43;;;3.23;;
2434;SDS011;1228;51.022;6.764;2024-02-23T11:21:59;3.17;;;2.87;;
2434;SDS011;1228;51.022;6.764;2024-02-23T11:24:25;3.20;;;3.00;;
2434;SDS011;1228;51.022;6.764;2024-02-23T11:27:00;3.33;;;3.13;;
2434;SDS011;1228;51.022;6.764;2024-02-23T11:29:38;3.60;;;3.00;;
2434;SDS011;1228;51.022;6.764;2024-02-23T11:32:12;3.53;;;2.83;;
2434;SDS011;1228;51.022;6.764;2024-02-23T11:34:41;4.80;;;3.30;;
2434;SDS011;1228;51.022;6.764;2024-02-23T11:37:11;4.60;;;3.20;;
2434;SDS011;1228;51.022;6.764;2024-02-23T11:39:38;3.20;;;2.77;;
2434;SDS011;1228;51.022;6.764;2024-02-23T11:42:06;3.03;;;2.83;;
2434;SDS011;1228;51.022;6.764;2024-02-23T11:44:32;3.43;;;3.13;;
2434;SDS011;1228;51.022;6.764;2024-02-23T11:47:00;3.10;;;2.47;;
2434;SDS011;1228;51.022;6.764;2024-02-23T11:49:28;3.00;;;2.73;;
2434;SDS011;1228;51.022;6.764;2024-02-23T11:51:54;5.83;;;2.97;;
2434;SDS011;1228;51.022;6.764;2024-02-23T11:54:20;3.63;;;2.83;;
2434;SDS011;1228;51.022;6.764;2024-02-23T11:56:55;4.00;;;3.00;;
2434;SDS011;1228;51.022;6.764;2024-02-23T11:59:21;3.27;;;2.90;;
2434;SDS011;1228;51.022;6.764;2024-02-23T12:01:52;3.53;;;3.00;;
2434;SDS011;1228;51.022;6.764;2024-02-23T12:04:17;3.73;;;2.90;;
2434;SDS011;1228;51.022;6.764;2024-02-23T12:06:44;4.67;;;3.20;;
2434;SDS011;1228;51.022;6.764;2024-02-23T12:09:11;6.00;;;3.33;;
2434;SDS011;1228;51.022;6.764;2024-02-23T12:11:37;5.57;;;3.17;;
2434;SDS011;1228;51.022;6.764;2024-02-23T12:14:04;4.13;;;3.73;;
2434;SDS011;1228;51.022;6.764;2024-02-23T12:16:34;6.83;;;3.30;;
2434;SDS011;1228;51.022;6.764;2024-02-23T12:19:03;3.70;;;2.97;;
2434;SDS011;1228;51.022;6.764;2024-02-23T12:21:28;5.17;;;2.80;;
2434;SDS011;1228;51.022;6.764;2024-02-23T12:23:54;5.37;;;3.03;;
2434;SDS011;1228;51.022;6.764;2024-02-23T12:26:20;3.43;;;3.10;;
2434;SDS011;1228;51.022;6.764;2024-02-23T12:28:52;5.03;;;3.50;;
2434;SDS011;1228;51.022;6.764;2024-02-23T12:31:24;8.47;;;3.33;;
2434;SDS011;1228;51.022;6.764;2024-02-23T12:33:51;5.23;;;3.00;;
2434;SDS011;1228;51.022;6.764;2024-02-23T12:36:18;3.30;;;2.97;;
2434;SDS011;1228;51.022;6.764;2024-02-23T12:38:45;3.27;;;2.90;;
2434;SDS011;1228;51.022;6.764;2024-02-23T12:41:11;7.53;;;3.00;;
2434;SDS011;1228;51.022;6.764;2024-02-23T12:43:37;4.50;;;3.03;;
2434;SDS011;1228;51.022;6.764;2024-02-23T12:46:05;4.50;;;3.00;;
2434;SDS011;1228;51.022;6.764;2024-02-23T12:48:33;5.00;;;2.90;;
2434;SDS011;1228;51.022;6.764;2024-02-23T12:50:59;5.53;;;2.90;;
2434;SDS011;1228;51.022;6.764;2024-02-23T12:53:36;5.70;;;2.90;;
2434;SDS011;1228;51.022;6.764;2024-02-23T12:56:09;4.93;;;3.00;;
2434;SDS011;1228;51.022;6.764;2024-02-23T12:58:37;6.53;;;2.80;;
2434;SDS011;1228;51.022;6.764;2024-02-23T13:01:04;4.53;;;2.60;;
2434;SDS011;1228;51.022;6.764;2024-02-23T13:03:32;4.53;;;2.83;;
2434;SDS011;1228;51.022;6.764;2024-02-23T13:05:59;3.97;;;2.77;;
2434;SDS011;1228;51.022;6.764;2024-02-23T13:08:25;4.57;;;2.90;;
2434;SDS011;1228;51.022;6.764;2024-02-23T13:10:52;4.30;;;2.70;;
2434;SDS011;1228;51.022;6.764;2024-02-23T13:13:19;5.83;;;3.10;;
2434;SDS011;1228;51.022;6.764;2024-02-23T13:15:45;3.33;;;2.57;;
2434;SDS011;1228;51.022;6.764;2024-02-23T13:18:12;5.93;;;2.87;;
2434;SDS011;1228;51.022;6.764;2024-02-23T13:20:38;4.80;;;2.93;;
2434;SDS011;1228;51.022;6.764;2024-02-23T13:23:06;4.00;;;2.80;;
2434;SDS011;1228;51.022;6.764;2024-02-23T13:25:33;4.53;;;2.80;;
2434;SDS011;1228;51.022;6.764;2024-02-23T13:28:02;3.37;;;2.60;;
2434;SDS011;1228;51.022;6.764;2024-02-23T13:30:29;2.57;;;2.37;;
2434;SDS011;1228;51.022;6.764;2024-02-23T13:32:55;3.00;;;2.80;;
2434;SDS011;1228;51.022;6.764;2024-02-23T13:35:21;3.30;;;2.67;;
2434;SDS011;1228;51.022;6.764;2024-02-23T13:37:49;3.50;;;3.20;;
2434;SDS011;1228;51.022;6.764;2024-02-23T13:40:16;2.80;;;2.60;;
2434;SDS011;1228;51.022;6.764;2024-02-23T13:42:42;2.70;;;2.50;;
2434;SDS011;1228;51.022;6.764;2024-02-23T13:45:10;4.50;;;3.07;;
2434;SDS011;1228;51.022;6.764;2024-02-23T13:47:38;6.13;;;3.17;;
2434;SDS011;1228;51.022;6.764;2024-02-23T13:50:04;5.70;;;3.27;;
2434;SDS011;1228;51.022;6.764;2024-02-23T13:52:32;5.23;;;2.83;;
2434;SDS011;1228;51.022;6.764;2024-02-23T13:54:58;4.53;;;3.23;;
2434;SDS011;1228;51.022;6.764;2024-02-23T13:57:40;2.80;;;2.70;;
2434;SDS011;1228;51.022;6.764;2024-02-23T14:00:06;4.67;;;2.87;;
2434;SDS011;1228;51.022;6.764;2024-02-23T14:02:37;4.20;;;2.80;;
2434;SDS011;1228;51.022;6.764;2024-02-23T14:05:06;3.23;;;2.97;;
2434;SDS011;1228;51.022;6.764;2024-02-23T14:07:35;5.57;;;2.90;;
2434;SDS011;1228;51.022;6.764;2024-02-23T14:10:02;3.23;;;3.03;;
2434;SDS011;1228;51.022;6.764;2024-02-23T14:12:29;3.43;;;3.00;;
2434;SDS011;1228;51.022;6.764;2024-02-23T14:14:55;3.00;;;2.70;;
2434;SDS011;1228;51.022;6.764;2024-02-23T14:17:20;3.07;;;2.77;;
2434;SDS011;1228;51.022;6.764;2024-02-23T14:19:46;3.10;;;2.80;;
2434;SDS011;1228;51.022;6.764;2024-02-23T14:22:15;3.30;;;3.10;;
2434;SDS011;1228;51.022;6.764;2024-02-23T14:24:45;3.17;;;2.87;;
2434;SDS011;1228;51.022;6.764;2024-02-23T14:27:15;3.63;;;2.70;;
2434;SDS011;1228;51.022;6.764;2024-02-23T14:29:40;3.07;;;2.80;;
2434;SDS011;1228;51.022;6.764;2024-02-23T14:32:08;3.93;;;2.90;;
2434;SDS011;1228;51.022;6.764;2024-02-23T14:34:53;3.30;;;3.00;;
2434;SDS011;1228;51.022;6.764;2024-02-23T14:37:23;5.23;;;3.17;;
2434;SDS011;1228;51.022;6.764;2024-02-23T14:39:49;3.90;;;2.83;;
2434;SDS011;1228;51.022;6.764;2024-02-23T14:42:15;2.93;;;2.80;;
2434;SDS011;1228;51.022;6.764;2024-02-23T14:44:41;3.37;;;3.10;;
2434;SDS011;1228;51.022;6.764;2024-02-23T14:47:07;4.13;;;3.10;;
2434;SDS011;1228;51.022;6.764;2024-02-23T14:49:34;3.57;;;3.23;;
2434;SDS011;1228;51.022;6.764;2024-02-23T14:52:01;6.73;;;3.30;;
2434;SDS011;1228;51.022;6.764;2024-02-23T14:54:27;5.13;;;3.13;;
2434;SDS011;1228;51.022;6.764;2024-02-23T14:56:54;3.43;;;2.90;;
2434;SDS011;1228;51.022;6.764;2024-02-23T14:59:20;3.77;;;2.80;;
2434;SDS011;1228;51.022;6.764;2024-02-23T15:01:46;3.80;;;3.00;;
2434;SDS011;1228;51.022;6.764;2024-02-23T15:04:13;3.33;;;3.03;;
2434;SDS011;1228;51.022;6.764;2024-02-23T15:06:39;4.50;;;2.80;;
2434;SDS011;1228;51.022;6.764;2024-02-23T15:09:05;4.63;;;3.63;;
2434;SDS011;1228;51.022;6.764;2024-02-23T15:11:30;4.47;;;3.37;;